createdAt,value
2017-10-14T00:00:39.065Z,16.89
2017-10-14T00:01:48.273Z,16.91
2017-10-14T00:02:57.468Z,16.86
2017-10-14T00:04:06.370Z,16.88
2017-10-14T00:05:15.222Z,16.85
2017-10-14T00:06:24.083Z,16.85
2017-10-14T00:07:32.928Z,16.85
2017-10-14T00:08:41.780Z,16.88
2017-10-14T00:09:50.731Z,16.88
2017-10-14T00:10:59.583Z,16.83
2017-10-14T00:12:08.435Z,16.91
2017-10-14T00:13:17.284Z,16.83
2017-10-14T00:14:26.135Z,16.79
2017-10-14T00:15:35.039Z,16.85
2017-10-14T00:16:43.887Z,16.89
2017-10-14T00:17:52.735Z,16.89
2017-10-14T00:19:01.589Z,16.86
2017-10-14T00:20:10.778Z,16.86
2017-10-14T00:21:19.926Z,16.86
2017-10-14T00:22:28.776Z,16.86
2017-10-14T00:23:37.624Z,16.83
2017-10-14T00:24:46.476Z,16.88
2017-10-14T00:25:55.326Z,16.88
2017-10-14T00:27:04.328Z,16.85
2017-10-14T00:28:13.182Z,16.86
2017-10-14T00:29:22.035Z,16.89
2017-10-14T00:30:30.895Z,16.88
2017-10-14T00:31:40.098Z,16.83
2017-10-14T00:32:49.596Z,16.91
2017-10-14T00:33:58.450Z,16.89
2017-10-14T00:35:07.299Z,16.88
2017-10-14T00:36:16.149Z,16.88
2017-10-14T00:37:24.999Z,16.88
2017-10-14T00:38:34.153Z,16.97
2017-10-14T00:39:43.357Z,16.93
2017-10-14T00:40:52.208Z,16.89
2017-10-14T00:42:01.064Z,16.91
2017-10-14T00:43:10.260Z,16.91
2017-10-14T00:44:19.109Z,16.93
2017-10-14T00:45:27.958Z,16.96
2017-10-14T00:46:36.810Z,16.93
2017-10-14T00:47:45.660Z,16.89
2017-10-14T00:48:54.508Z,16.91
2017-10-14T00:50:03.701Z,16.91
2017-10-14T00:51:12.551Z,16.91
2017-10-14T00:52:21.401Z,16.97
2017-10-14T00:53:30.252Z,16.97
2017-10-14T00:54:39.101Z,16.97
2017-10-14T00:55:47.980Z,16.96
2017-10-14T00:56:57.152Z,16.93
2017-10-14T00:58:06.003Z,16.91
2017-10-14T00:59:14.853Z,16.96
2017-10-14T01:00:23.705Z,16.93
2017-10-14T01:01:32.658Z,16.94
2017-10-14T01:02:41.509Z,16.91
2017-10-14T01:03:50.365Z,16.91
2017-10-14T01:04:59.216Z,16.91
2017-10-14T01:06:08.066Z,16.96
2017-10-14T01:07:17.074Z,16.94
2017-10-14T01:08:25.923Z,16.94
2017-10-14T01:09:34.776Z,16.96
2017-10-14T01:10:43.628Z,16.94
2017-10-14T01:11:52.825Z,16.91
2017-10-14T01:13:01.979Z,16.91
2017-10-14T01:14:10.828Z,16.89
2017-10-14T01:15:19.680Z,16.89
2017-10-14T01:16:28.538Z,16.97
2017-10-14T01:17:37.387Z,16.88
2017-10-14T01:18:46.435Z,16.98
2017-10-14T01:19:55.291Z,17
2017-10-14T01:21:04.136Z,16.97
2017-10-14T01:22:12.990Z,16.97
2017-10-14T01:23:21.836Z,16.91
2017-10-14T01:24:30.841Z,16.93
2017-10-14T01:25:39.688Z,16.97
2017-10-14T01:26:48.544Z,16.96
2017-10-14T01:27:57.395Z,16.94
2017-10-14T01:29:06.245Z,16.98
2017-10-14T01:30:15.347Z,16.96
2017-10-14T01:31:24.200Z,16.96
2017-10-14T01:32:33.049Z,16.94
2017-10-14T01:33:41.900Z,16.96
2017-10-14T01:34:51.104Z,16.91
2017-10-14T01:35:59.955Z,16.93
2017-10-14T01:37:08.807Z,16.93
2017-10-14T01:38:17.655Z,16.93
2017-10-14T01:39:26.507Z,16.89
2017-10-14T01:40:35.357Z,16.93
2017-10-14T01:41:44.213Z,16.94
2017-10-14T01:42:53.070Z,16.93
2017-10-14T01:44:01.916Z,16.91
2017-10-14T01:45:10.767Z,16.89
2017-10-14T01:46:19.625Z,16.83
2017-10-14T01:47:28.968Z,16.79
2017-10-14T01:48:37.819Z,16.94
2017-10-14T01:49:46.673Z,16.89
2017-10-14T01:50:55.522Z,16.93
2017-10-14T01:52:04.371Z,16.91
2017-10-14T01:53:13.523Z,16.91
2017-10-14T01:54:22.374Z,16.85
2017-10-14T01:55:31.228Z,16.85
2017-10-14T01:56:40.080Z,16.85
2017-10-14T01:57:48.931Z,16.89
2017-10-14T01:58:57.930Z,16.82
2017-10-14T02:00:07.131Z,16.89
2017-10-14T02:01:15.980Z,16.88
2017-10-14T02:02:24.829Z,16.83
2017-10-14T02:03:33.676Z,16.91
2017-10-14T02:04:42.678Z,16.88
2017-10-14T02:05:51.527Z,16.89
2017-10-14T02:07:00.377Z,16.89
2017-10-14T02:08:09.226Z,16.83
2017-10-14T02:09:18.075Z,16.89
2017-10-14T02:10:27.023Z,16.89
2017-10-14T02:11:35.878Z,16.83
2017-10-14T02:12:44.731Z,16.88
2017-10-14T02:13:53.582Z,16.89
2017-10-14T02:15:02.433Z,16.89
2017-10-14T02:16:11.286Z,16.89
2017-10-14T02:17:20.140Z,16.89
2017-10-14T02:18:28.992Z,16.88
2017-10-14T02:19:37.842Z,16.88
2017-10-14T02:20:46.690Z,16.94
2017-10-14T02:21:55.543Z,16.89
2017-10-14T02:23:04.400Z,16.93
2017-10-14T02:24:13.250Z,16.88
2017-10-14T02:25:22.100Z,16.93
2017-10-14T02:26:30.954Z,16.89
2017-10-14T02:27:39.957Z,16.91
2017-10-14T02:28:48.807Z,16.97
2017-10-14T02:29:58.001Z,16.91
2017-10-14T02:31:06.853Z,16.93
2017-10-14T02:32:15.712Z,16.91
2017-10-14T02:33:25.453Z,16.83
2017-10-14T02:34:34.305Z,16.93
2017-10-14T02:35:43.157Z,16.88
2017-10-14T02:36:52.005Z,16.93
2017-10-14T02:38:00.853Z,16.83
2017-10-14T02:39:09.806Z,16.83
2017-10-14T02:40:18.657Z,16.78
2017-10-14T02:41:27.508Z,16.93
2017-10-14T02:42:36.365Z,16.76
2017-10-14T02:43:45.218Z,16.85
2017-10-14T02:44:54.222Z,16.91
2017-10-14T02:46:03.422Z,16.89
2017-10-14T02:47:12.291Z,16.85
2017-10-14T02:48:21.125Z,16.71
2017-10-14T02:49:29.975Z,16.85
2017-10-14T02:50:38.825Z,16.79
2017-10-14T02:51:47.675Z,16.85
2017-10-14T02:52:56.528Z,16.91
2017-10-14T02:54:05.384Z,16.93
2017-10-14T02:55:14.233Z,16.85
2017-10-14T02:56:23.287Z,16.83
2017-10-14T02:57:32.139Z,16.85
2017-10-14T02:58:40.990Z,16.78
2017-10-14T02:59:49.845Z,16.78
2017-10-14T03:00:58.695Z,16.82
2017-10-14T03:02:07.748Z,16.88
2017-10-14T03:03:16.599Z,16.81
2017-10-14T03:04:25.450Z,16.78
2017-10-14T03:05:34.301Z,16.78
2017-10-14T03:06:43.153Z,16.78
2017-10-14T03:07:52.102Z,16.82
2017-10-14T03:09:00.955Z,16.82
2017-10-14T03:10:09.804Z,16.88
2017-10-14T03:11:18.655Z,16.79
2017-10-14T03:12:27.507Z,16.73
2017-10-14T03:13:36.709Z,16.81
2017-10-14T03:14:45.562Z,16.79
2017-10-14T03:15:54.411Z,16.83
2017-10-14T03:17:03.629Z,16.82
2017-10-14T03:18:12.482Z,16.81
2017-10-14T03:19:21.434Z,16.89
2017-10-14T03:20:30.288Z,16.79
2017-10-14T03:21:39.142Z,16.78
2017-10-14T03:22:47.991Z,16.79
2017-10-14T03:23:56.843Z,16.79
2017-10-14T03:25:05.999Z,16.75
2017-10-14T03:26:15.200Z,16.79
2017-10-14T03:27:24.067Z,16.76
2017-10-14T03:28:32.901Z,16.79
2017-10-14T03:29:41.756Z,16.76
2017-10-14T03:30:50.902Z,16.78
2017-10-14T03:31:59.755Z,16.71
2017-10-14T03:33:08.611Z,16.81
2017-10-14T03:34:17.461Z,16.81
2017-10-14T03:35:26.661Z,16.76
2017-10-14T03:36:35.814Z,16.76
2017-10-14T03:37:44.669Z,16.78
2017-10-14T03:38:53.521Z,16.81
2017-10-14T03:40:02.375Z,16.75
2017-10-14T03:41:11.220Z,16.76
2017-10-14T03:42:20.219Z,16.82
2017-10-14T03:43:29.070Z,16.81
2017-10-14T03:44:37.927Z,16.85
2017-10-14T03:45:46.770Z,16.82
2017-10-14T03:46:55.623Z,16.78
2017-10-14T03:48:04.528Z,16.76
2017-10-14T03:49:13.380Z,16.76
2017-10-14T03:50:22.231Z,16.79
2017-10-14T03:51:31.083Z,16.82
2017-10-14T03:52:39.935Z,16.76
2017-10-14T03:53:48.986Z,16.78
2017-10-14T03:54:57.838Z,16.81
2017-10-14T03:56:06.690Z,16.78
2017-10-14T03:57:15.543Z,16.79
2017-10-14T03:58:24.391Z,16.79
2017-10-14T03:59:33.290Z,16.82
2017-10-14T04:00:42.138Z,16.85
2017-10-14T04:01:50.992Z,16.82
2017-10-14T04:02:59.845Z,16.75
2017-10-14T04:04:08.695Z,16.82
2017-10-14T04:05:17.647Z,16.76
2017-10-14T04:06:26.504Z,16.76
2017-10-14T04:07:35.352Z,16.89
2017-10-14T04:08:44.203Z,16.88
2017-10-14T04:09:53.053Z,16.81
2017-10-14T04:11:02.203Z,16.79
2017-10-14T04:12:11.055Z,16.79
2017-10-14T04:13:19.908Z,16.71
2017-10-14T04:14:28.760Z,16.73
2017-10-14T04:15:37.609Z,16.71
2017-10-14T04:16:46.508Z,16.85
2017-10-14T04:17:55.359Z,16.7
2017-10-14T04:19:04.209Z,16.76
2017-10-14T04:20:13.058Z,16.7
2017-10-14T04:21:21.907Z,16.73
2017-10-14T04:22:30.863Z,16.73
2017-10-14T04:23:40.066Z,16.79
2017-10-14T04:24:48.916Z,16.7
2017-10-14T04:25:57.766Z,16.78
2017-10-14T04:27:06.618Z,16.73
2017-10-14T04:28:15.570Z,16.75
2017-10-14T04:29:24.422Z,16.7
2017-10-14T04:30:33.271Z,16.78
2017-10-14T04:31:42.123Z,16.73
2017-10-14T04:32:50.975Z,16.7
2017-10-14T04:33:59.880Z,16.73
2017-10-14T04:35:09.073Z,16.75
2017-10-14T04:36:17.922Z,16.75
2017-10-14T04:37:26.772Z,16.73
2017-10-14T04:38:35.624Z,16.78
2017-10-14T04:39:44.475Z,16.73
2017-10-14T04:40:53.326Z,16.75
2017-10-14T04:42:02.183Z,16.76
2017-10-14T04:43:11.029Z,16.75
2017-10-14T04:44:19.879Z,16.78
2017-10-14T04:45:28.830Z,16.73
2017-10-14T04:46:37.684Z,16.78
2017-10-14T04:47:46.529Z,16.76
2017-10-14T04:48:55.377Z,16.76
2017-10-14T04:50:04.229Z,16.75
2017-10-14T04:51:13.480Z,16.81
2017-10-14T04:52:22.678Z,16.78
2017-10-14T04:53:31.529Z,16.79
2017-10-14T04:54:40.381Z,16.7
2017-10-14T04:55:49.233Z,16.71
2017-10-14T04:56:58.085Z,16.86
2017-10-14T04:58:06.938Z,16.78
2017-10-14T04:59:15.794Z,16.73
2017-10-14T05:00:24.637Z,16.73
2017-10-14T05:01:33.490Z,16.78
2017-10-14T05:02:42.640Z,16.76
2017-10-14T05:03:51.839Z,16.75
2017-10-14T05:05:00.691Z,16.76
2017-10-14T05:06:09.542Z,16.78
2017-10-14T05:07:18.395Z,16.73
2017-10-14T05:08:27.396Z,16.67
2017-10-14T05:09:36.257Z,16.79
2017-10-14T05:10:45.099Z,16.7
2017-10-14T05:11:53.950Z,16.7
2017-10-14T05:13:02.801Z,16.75
2017-10-14T05:14:11.701Z,16.73
2017-10-14T05:15:20.553Z,16.52
2017-10-14T05:16:29.407Z,16.61
2017-10-14T05:17:38.254Z,16.52
2017-10-14T05:18:47.105Z,16.58
2017-10-14T05:19:55.957Z,16.61
2017-10-14T05:21:04.808Z,16.68
2017-10-14T05:22:14.008Z,16.6
2017-10-14T05:23:22.858Z,16.6
2017-10-14T05:24:31.709Z,16.57
2017-10-14T05:25:41.059Z,16.66
2017-10-14T05:26:49.904Z,16.52
2017-10-14T05:27:58.754Z,16.46
2017-10-14T05:29:07.605Z,16.45
2017-10-14T05:30:16.459Z,16.57
2017-10-14T05:31:25.510Z,16.58
2017-10-14T05:32:34.362Z,16.52
2017-10-14T05:33:43.213Z,16.63
2017-10-14T05:34:52.063Z,16.61
2017-10-14T05:36:00.914Z,16.6
2017-10-14T05:37:10.065Z,16.57
2017-10-14T05:38:18.916Z,16.53
2017-10-14T05:39:27.770Z,16.49
2017-10-14T05:40:36.631Z,16.61
2017-10-14T05:41:45.485Z,16.58
2017-10-14T05:42:54.335Z,16.58
2017-10-14T05:44:03.185Z,16.49
2017-10-14T05:45:12.038Z,16.5
2017-10-14T05:46:20.887Z,16.61
2017-10-14T05:47:29.738Z,16.58
2017-10-14T05:48:38.693Z,16.46
2017-10-14T05:49:47.548Z,16.45
2017-10-14T05:50:56.391Z,16.5
2017-10-14T05:52:05.241Z,16.61
2017-10-14T05:53:14.093Z,16.48
2017-10-14T05:54:23.042Z,16.56
2017-10-14T05:55:31.893Z,16.5
2017-10-14T05:56:40.747Z,16.52
2017-10-14T05:57:49.604Z,16.5
2017-10-14T05:58:58.457Z,16.61
2017-10-14T06:00:07.417Z,16.63
2017-10-14T06:01:16.266Z,16.49
2017-10-14T06:02:25.117Z,16.6
2017-10-14T06:03:33.984Z,16.58
2017-10-14T06:04:42.828Z,16.5
2017-10-14T06:05:52.123Z,16.42
2017-10-14T06:07:00.976Z,16.46
2017-10-14T06:08:09.830Z,16.52
2017-10-14T06:09:18.683Z,16.49
2017-10-14T06:10:27.541Z,16.53
2017-10-14T06:11:36.395Z,16.5
2017-10-14T06:12:45.246Z,16.46
2017-10-14T06:13:54.097Z,16.5
2017-10-14T06:15:03.020Z,16.48
2017-10-14T06:16:11.878Z,16.49
2017-10-14T06:17:20.760Z,16.5
2017-10-14T06:18:29.601Z,16.48
2017-10-14T06:19:38.484Z,16.48
2017-10-14T06:20:47.328Z,16.48
2017-10-14T06:21:56.181Z,16.5
2017-10-14T06:23:05.038Z,16.49
2017-10-14T06:24:13.889Z,16.49
2017-10-14T06:25:22.741Z,16.52
2017-10-14T06:26:31.594Z,16.42
2017-10-14T06:27:40.445Z,16.45
2017-10-14T06:28:50.928Z,16.46
2017-10-14T06:30:00.098Z,16.45
2017-10-14T06:31:09.496Z,16.46
2017-10-14T06:32:18.607Z,16.43
2017-10-14T06:33:27.870Z,16.46
2017-10-14T06:34:36.949Z,16.46
2017-10-14T06:35:45.801Z,16.39
2017-10-14T06:36:54.703Z,16.38
2017-10-14T06:38:03.564Z,16.35
2017-10-14T06:39:12.417Z,16.41
2017-10-14T06:40:21.703Z,16.49
2017-10-14T06:41:30.828Z,16.38
2017-10-14T06:42:39.782Z,16.42
2017-10-14T06:43:48.637Z,16.43
2017-10-14T06:44:57.556Z,16.41
2017-10-14T06:46:06.414Z,16.46
2017-10-14T06:47:15.264Z,16.46
2017-10-14T06:48:24.233Z,16.46
2017-10-14T06:49:33.427Z,16.49
2017-10-14T06:50:42.670Z,16.48
2017-10-14T06:51:51.614Z,16.48
2017-10-14T06:53:00.465Z,16.49
2017-10-14T06:54:09.318Z,16.48
2017-10-14T06:55:18.172Z,16.49
2017-10-14T06:56:27.022Z,16.48
2017-10-14T06:57:35.873Z,16.43
2017-10-14T06:58:44.726Z,16.5
2017-10-14T06:59:53.578Z,16.49
2017-10-14T07:01:02.429Z,16.48
2017-10-14T07:02:11.284Z,16.5
2017-10-14T07:03:20.136Z,16.46
2017-10-14T07:04:28.990Z,16.46
2017-10-14T07:05:37.840Z,16.39
2017-10-14T07:06:46.693Z,16.46
2017-10-14T07:07:55.560Z,16.39
2017-10-14T07:09:04.416Z,16.43
2017-10-14T07:10:13.267Z,16.45
2017-10-14T07:11:22.117Z,16.43
2017-10-14T07:12:30.971Z,16.42
2017-10-14T07:13:39.921Z,16.45
2017-10-14T07:14:48.774Z,16.56
2017-10-14T07:15:57.627Z,16.49
2017-10-14T07:17:06.481Z,16.48
2017-10-14T07:18:15.331Z,16.48
2017-10-14T07:19:24.240Z,16.49
2017-10-14T07:20:33.090Z,16.5
2017-10-14T07:21:41.941Z,16.45
2017-10-14T07:22:50.791Z,16.48
2017-10-14T07:23:59.646Z,16.53
2017-10-14T07:25:08.994Z,16.49
2017-10-14T07:26:17.847Z,16.46
2017-10-14T07:27:26.712Z,16.49
2017-10-14T07:28:35.563Z,16.49
2017-10-14T07:29:44.416Z,16.57
2017-10-14T07:30:53.570Z,16.61
2017-10-14T07:32:02.420Z,16.46
2017-10-14T07:33:11.276Z,16.5
2017-10-14T07:34:20.128Z,16.46
2017-10-14T07:35:29.326Z,16.49
2017-10-14T07:36:38.379Z,16.49
2017-10-14T07:37:47.232Z,16.53
2017-10-14T07:38:56.084Z,16.53
2017-10-14T07:40:04.939Z,16.48
2017-10-14T07:41:13.792Z,16.5
2017-10-14T07:42:22.844Z,16.61
2017-10-14T07:43:31.697Z,16.43
2017-10-14T07:44:40.546Z,16.45
2017-10-14T07:45:49.397Z,16.61
2017-10-14T07:46:58.248Z,16.6
2017-10-14T07:48:07.101Z,16.43
2017-10-14T07:49:15.953Z,16.46
2017-10-14T07:50:24.805Z,16.46
2017-10-14T07:51:33.659Z,16.48
2017-10-14T07:52:42.510Z,16.48
2017-10-14T07:53:51.859Z,16.5
2017-10-14T07:55:00.714Z,16.43
2017-10-14T07:56:09.913Z,16.52
2017-10-14T07:57:18.783Z,16.46
2017-10-14T07:58:27.986Z,16.45
2017-10-14T07:59:36.836Z,16.49
2017-10-14T08:00:45.684Z,16.45
2017-10-14T08:01:54.536Z,16.5
2017-10-14T08:03:03.387Z,16.46
2017-10-14T08:04:12.239Z,16.49
2017-10-14T08:05:21.393Z,16.46
2017-10-14T08:06:30.245Z,16.43
2017-10-14T08:07:39.100Z,16.39
2017-10-14T08:08:47.948Z,16.49
2017-10-14T08:09:56.801Z,16.43
2017-10-14T08:11:05.654Z,16.43
2017-10-14T08:12:14.506Z,16.42
2017-10-14T08:13:23.360Z,16.34
2017-10-14T08:14:32.210Z,16.41
2017-10-14T08:15:41.063Z,16.42
2017-10-14T08:16:49.981Z,16.43
2017-10-14T08:17:58.832Z,16.46
2017-10-14T08:19:07.685Z,16.5
2017-10-14T08:20:16.537Z,16.48
2017-10-14T08:21:25.387Z,16.5
2017-10-14T08:22:34.441Z,16.48
2017-10-14T08:23:43.291Z,16.38
2017-10-14T08:24:52.153Z,16.39
2017-10-14T08:26:01.344Z,16.46
2017-10-14T08:27:10.197Z,16.35
2017-10-14T08:28:19.101Z,16.43
2017-10-14T08:29:27.955Z,16.39
2017-10-14T08:30:37.161Z,16.38
2017-10-14T08:31:46.017Z,16.43
2017-10-14T08:32:54.871Z,16.45
2017-10-14T08:34:03.773Z,16.43
2017-10-14T08:35:12.628Z,16.34
2017-10-14T08:36:21.479Z,16.41
2017-10-14T08:37:30.329Z,16.34
2017-10-14T08:38:39.182Z,16.52
2017-10-14T08:39:48.136Z,16.41
2017-10-14T08:40:56.989Z,16.43
2017-10-14T08:42:05.842Z,16.48
2017-10-14T08:43:14.698Z,16.46
2017-10-14T08:44:23.549Z,16.42
2017-10-14T08:45:32.453Z,16.41
2017-10-14T08:46:41.306Z,16.31
2017-10-14T08:47:50.158Z,16.3
2017-10-14T08:48:59.010Z,16.31
2017-10-14T08:50:07.865Z,16.28
2017-10-14T08:51:16.766Z,16.35
2017-10-14T08:52:25.616Z,16.3
2017-10-14T08:53:34.469Z,16.45
2017-10-14T08:54:43.322Z,16.34
2017-10-14T08:55:52.520Z,16.42
2017-10-14T08:57:01.626Z,16.39
2017-10-14T08:58:10.482Z,16.39
2017-10-14T08:59:19.336Z,16.33
2017-10-14T09:00:28.189Z,16.42
2017-10-14T09:01:37.044Z,16.33
2017-10-14T09:02:46.047Z,16.34
2017-10-14T09:03:54.902Z,16.27
2017-10-14T09:05:03.755Z,16.31
2017-10-14T09:06:12.616Z,16.28
2017-10-14T09:07:21.463Z,16.23
2017-10-14T09:08:30.465Z,16.31
2017-10-14T09:09:39.317Z,16.33
2017-10-14T09:10:48.171Z,16.34
2017-10-14T09:11:57.024Z,16.41
2017-10-14T09:13:05.878Z,16.33
2017-10-14T09:14:14.793Z,16.35
2017-10-14T09:15:23.647Z,16.38
2017-10-14T09:16:32.501Z,16.38
2017-10-14T09:17:41.696Z,16.39
2017-10-14T09:18:50.546Z,16.33
2017-10-14T09:19:59.398Z,16.38
2017-10-14T09:21:08.256Z,16.46
2017-10-14T09:22:17.097Z,16.46
2017-10-14T09:23:25.952Z,16.41
2017-10-14T09:24:34.805Z,16.43
2017-10-14T09:25:43.859Z,16.46
2017-10-14T09:26:52.719Z,16.52
2017-10-14T09:28:01.568Z,16.45
2017-10-14T09:29:10.422Z,16.52
2017-10-14T09:30:19.276Z,16.49
2017-10-14T09:31:28.379Z,16.63
2017-10-14T09:32:37.253Z,16.5
2017-10-14T09:33:46.093Z,16.45
2017-10-14T09:34:54.944Z,16.49
2017-10-14T09:36:03.798Z,16.5
2017-10-14T09:37:12.805Z,16.5
2017-10-14T09:38:21.660Z,16.48
2017-10-14T09:39:30.513Z,16.48
2017-10-14T09:40:39.371Z,16.42
2017-10-14T09:41:48.231Z,16.5
2017-10-14T09:42:57.128Z,16.45
2017-10-14T09:44:05.983Z,16.49
2017-10-14T09:45:14.838Z,16.42
2017-10-14T09:46:23.690Z,16.46
2017-10-14T09:47:32.542Z,16.49
2017-10-14T09:48:41.399Z,16.42
2017-10-14T09:49:50.592Z,16.53
2017-10-14T09:50:59.446Z,16.46
2017-10-14T09:52:08.296Z,16.5
2017-10-14T09:53:17.147Z,16.41
2017-10-14T09:54:27.045Z,16.48
2017-10-14T09:55:35.965Z,16.46
2017-10-14T09:56:45.170Z,16.43
2017-10-14T09:57:54.038Z,16.6
2017-10-14T09:59:02.905Z,16.5
2017-10-14T10:00:12.217Z,16.48
2017-10-14T10:01:21.082Z,16.48
2017-10-14T10:02:29.967Z,16.52
2017-10-14T10:03:39.183Z,16.52
2017-10-14T10:04:48.049Z,16.63
2017-10-14T10:05:57.304Z,16.5
2017-10-14T10:07:06.167Z,16.49
2017-10-14T10:08:15.034Z,16.57
2017-10-14T10:09:23.898Z,16.66
2017-10-14T10:10:32.761Z,16.68
2017-10-14T10:11:41.726Z,16.66
2017-10-14T10:12:50.942Z,16.7
2017-10-14T10:13:59.807Z,16.71
2017-10-14T10:15:08.667Z,16.7
2017-10-14T10:16:17.526Z,16.81
2017-10-14T10:17:26.630Z,16.81
2017-10-14T10:18:35.486Z,16.89
2017-10-14T10:19:44.348Z,16.89
2017-10-14T10:20:53.553Z,16.85
2017-10-14T10:22:02.411Z,16.83
2017-10-14T10:23:11.365Z,16.85
2017-10-14T10:24:20.218Z,16.93
2017-10-14T10:25:29.075Z,16.94
2017-10-14T10:26:37.930Z,16.97
2017-10-14T10:27:46.784Z,16.98
2017-10-14T10:28:55.790Z,16.94
2017-10-14T10:30:04.641Z,16.93
2017-10-14T10:31:13.838Z,16.85
2017-10-14T10:32:22.693Z,16.82
2017-10-14T10:33:31.552Z,16.86
2017-10-14T10:34:40.604Z,16.88
2017-10-14T10:35:49.616Z,16.88
2017-10-14T10:36:58.470Z,16.97
2017-10-14T10:38:07.330Z,16.97
2017-10-14T10:39:16.192Z,16.83
2017-10-14T10:40:25.361Z,16.91
2017-10-14T10:41:34.213Z,16.94
2017-10-14T10:42:43.065Z,16.97
2017-10-14T10:43:51.919Z,16.98
2017-10-14T10:45:00.787Z,16.91
2017-10-14T10:46:09.809Z,16.93
2017-10-14T10:47:18.752Z,17.04
2017-10-14T10:48:28.387Z,17.08
2017-10-14T10:49:37.462Z,17.11
2017-10-14T10:50:46.421Z,17.08
2017-10-14T10:51:55.488Z,17.06
2017-10-14T10:53:04.366Z,17.06
2017-10-14T10:54:13.220Z,16.94
2017-10-14T10:55:22.073Z,17.07
2017-10-14T10:56:30.933Z,17.15
2017-10-14T10:57:40.086Z,17.07
2017-10-14T10:58:48.941Z,17.06
2017-10-14T10:59:57.794Z,17.11
2017-10-14T11:01:06.651Z,17.08
2017-10-14T11:02:15.504Z,17.06
2017-10-14T11:03:24.458Z,17.03
2017-10-14T11:04:33.317Z,17.12
2017-10-14T11:05:42.169Z,17.08
2017-10-14T11:06:51.070Z,17.18
2017-10-14T11:07:59.920Z,17.06
2017-10-14T11:09:08.773Z,17.12
2017-10-14T11:10:17.633Z,17.12
2017-10-14T11:11:26.484Z,17.16
2017-10-14T11:12:35.338Z,17.15
2017-10-14T11:13:44.195Z,17.08
2017-10-14T11:14:53.199Z,17.03
2017-10-14T11:16:02.055Z,16.93
2017-10-14T11:17:10.907Z,17.08
2017-10-14T11:18:19.758Z,17.08
2017-10-14T11:19:28.614Z,17.11
2017-10-14T11:20:37.568Z,17
2017-10-14T11:21:46.421Z,16.96
2017-10-14T11:22:55.275Z,16.97
2017-10-14T11:24:04.469Z,17.04
2017-10-14T11:25:13.674Z,16.96
2017-10-14T11:26:22.781Z,17.04
2017-10-14T11:27:31.644Z,16.97
2017-10-14T11:28:40.499Z,17.08
2017-10-14T11:29:49.696Z,16.94
2017-10-14T11:30:58.554Z,16.91
2017-10-14T11:32:07.709Z,16.97
2017-10-14T11:33:16.562Z,16.97
2017-10-14T11:34:25.413Z,17
2017-10-14T11:35:34.275Z,17.07
2017-10-14T11:36:43.264Z,16.93
2017-10-14T11:37:52.116Z,16.93
2017-10-14T11:39:00.968Z,16.97
2017-10-14T11:40:09.820Z,16.94
2017-10-14T11:41:18.675Z,16.97
2017-10-14T11:42:27.530Z,16.88
2017-10-14T11:43:36.482Z,16.88
2017-10-14T11:44:45.337Z,16.96
2017-10-14T11:45:54.193Z,16.89
2017-10-14T11:47:03.046Z,16.86
2017-10-14T11:48:11.899Z,16.85
2017-10-14T11:49:20.998Z,16.96
2017-10-14T11:50:29.854Z,16.89
2017-10-14T11:51:38.705Z,16.83
2017-10-14T11:52:47.559Z,16.86
2017-10-14T11:53:56.411Z,16.88
2017-10-14T11:55:05.487Z,16.94
2017-10-14T11:56:14.345Z,16.94
2017-10-14T11:57:23.195Z,16.89
2017-10-14T11:58:32.048Z,16.83
2017-10-14T11:59:40.903Z,16.88
2017-10-14T12:00:50.009Z,16.93
2017-10-14T12:01:58.866Z,16.88
2017-10-14T12:03:07.716Z,16.96
2017-10-14T12:04:16.585Z,16.91
2017-10-14T12:05:25.777Z,16.88
2017-10-14T12:06:34.780Z,17.01
2017-10-14T12:07:43.636Z,16.97
2017-10-14T12:08:52.489Z,16.91
2017-10-14T12:10:01.345Z,17.03
2017-10-14T12:11:10.198Z,16.97
2017-10-14T12:12:19.300Z,17.07
2017-10-14T12:13:28.152Z,17.07
2017-10-14T12:14:37.357Z,17.15
2017-10-14T12:15:46.210Z,16.97
2017-10-14T12:16:55.068Z,17.01
2017-10-14T12:18:04.122Z,17
2017-10-14T12:19:12.974Z,17.04
2017-10-14T12:20:22.177Z,16.91
2017-10-14T12:21:31.115Z,17.01
2017-10-14T12:22:40.000Z,16.94
2017-10-14T12:23:48.956Z,16.91
2017-10-14T12:24:57.833Z,16.98
2017-10-14T12:26:07.042Z,17.07
2017-10-14T12:27:15.893Z,17.12
2017-10-14T12:28:24.749Z,17.06
2017-10-14T12:29:33.751Z,17.11
2017-10-14T12:30:42.949Z,17.11
2017-10-14T12:31:51.802Z,17.15
2017-10-14T12:33:00.681Z,17.16
2017-10-14T12:34:09.637Z,17.22
2017-10-14T12:35:18.762Z,17.26
2017-10-14T12:36:27.705Z,17.15
2017-10-14T12:37:36.676Z,17.21
2017-10-14T12:38:46.095Z,17.23
2017-10-14T12:39:54.951Z,17.14
2017-10-14T12:41:03.908Z,17.16
2017-10-14T12:42:12.771Z,17.34
2017-10-14T12:43:22.017Z,17.41
2017-10-14T12:44:30.934Z,17.52
2017-10-14T12:45:39.947Z,17.63
2017-10-14T12:46:48.810Z,17.7
2017-10-14T12:47:57.665Z,17.75
2017-10-14T12:49:06.872Z,17.68
2017-10-14T12:50:15.728Z,17.75
2017-10-14T12:51:24.929Z,17.89
2017-10-14T12:52:33.786Z,17.99
2017-10-14T12:53:42.641Z,18.02
2017-10-14T12:54:51.500Z,18.12
2017-10-14T12:56:00.356Z,18.15
2017-10-14T12:57:09.208Z,18.23
2017-10-14T12:58:18.114Z,18.17
2017-10-14T12:59:26.994Z,18.3
2017-10-14T13:00:35.849Z,18.32
2017-10-14T13:01:44.706Z,18.27
2017-10-14T13:02:53.561Z,18.36
2017-10-14T13:04:02.517Z,18.29
2017-10-14T13:05:11.376Z,18.44
2017-10-14T13:06:20.581Z,18.41
2017-10-14T13:07:29.439Z,18.42
2017-10-14T13:08:38.314Z,18.48
2017-10-14T13:09:47.321Z,18.54
2017-10-14T13:10:56.196Z,18.55
2017-10-14T13:12:05.062Z,18.51
2017-10-14T13:13:13.917Z,18.55
2017-10-14T13:14:23.118Z,18.54
2017-10-14T13:15:32.029Z,18.62
2017-10-14T13:16:40.884Z,18.65
2017-10-14T13:17:49.738Z,18.69
2017-10-14T13:18:58.638Z,18.82
2017-10-14T13:20:07.506Z,18.8
2017-10-14T13:21:16.472Z,18.81
2017-10-14T13:22:25.338Z,18.78
2017-10-14T13:23:34.194Z,18.76
2017-10-14T13:24:43.095Z,18.78
2017-10-14T13:25:51.949Z,18.87
2017-10-14T13:27:01.048Z,18.81
2017-10-14T13:28:09.935Z,18.81
2017-10-14T13:29:18.792Z,18.95
2017-10-14T13:30:27.680Z,18.85
2017-10-14T13:31:36.536Z,18.95
2017-10-14T13:32:45.495Z,18.94
2017-10-14T13:33:54.374Z,18.99
2017-10-14T13:35:03.235Z,19.11
2017-10-14T13:36:12.134Z,19.02
2017-10-14T13:37:21.334Z,19.16
2017-10-14T13:38:30.202Z,19.19
2017-10-14T13:39:39.085Z,19.18
2017-10-14T13:40:47.943Z,19.22
2017-10-14T13:41:56.800Z,19.41
2017-10-14T13:43:05.659Z,19.51
2017-10-14T13:44:14.616Z,19.56
2017-10-14T13:45:23.472Z,19.63
2017-10-14T13:46:32.328Z,19.65
2017-10-14T13:47:41.212Z,19.63
2017-10-14T13:48:50.071Z,19.69
2017-10-14T13:49:59.714Z,19.69
2017-10-14T13:51:08.579Z,19.69
2017-10-14T13:52:17.438Z,19.76
2017-10-14T13:53:26.293Z,19.65
2017-10-14T13:54:35.153Z,19.8
2017-10-14T13:55:44.110Z,19.81
2017-10-14T13:56:53.308Z,19.8
2017-10-14T13:58:02.170Z,19.71
2017-10-14T13:59:11.025Z,19.61
2017-10-14T14:00:19.974Z,19.59
2017-10-14T14:01:29.379Z,19.63
2017-10-14T14:02:38.234Z,19.58
2017-10-14T14:03:47.088Z,19.62
2017-10-14T14:04:55.954Z,19.74
2017-10-14T14:06:04.806Z,19.66
2017-10-14T14:07:13.769Z,19.62
2017-10-14T14:08:22.977Z,19.61
2017-10-14T14:09:31.830Z,19.68
2017-10-14T14:10:40.688Z,19.55
2017-10-14T14:11:49.888Z,19.62
2017-10-14T14:12:58.845Z,19.69
2017-10-14T14:14:07.704Z,19.8
2017-10-14T14:15:16.559Z,19.68
2017-10-14T14:16:25.416Z,19.71
2017-10-14T14:17:34.277Z,19.8
2017-10-14T14:18:43.253Z,19.74
2017-10-14T14:19:52.085Z,19.59
2017-10-14T14:21:00.945Z,19.55
2017-10-14T14:22:09.800Z,19.59
2017-10-14T14:23:19.002Z,19.62
2017-10-14T14:24:28.058Z,19.62
2017-10-14T14:25:36.918Z,19.61
2017-10-14T14:26:45.787Z,19.61
2017-10-14T14:27:54.629Z,19.59
2017-10-14T14:29:03.490Z,19.69
2017-10-14T14:30:12.400Z,19.62
2017-10-14T14:31:21.943Z,19.56
2017-10-14T14:32:30.800Z,19.56
2017-10-14T14:33:39.658Z,19.62
2017-10-14T14:34:48.913Z,19.61
2017-10-14T14:35:57.922Z,19.63
2017-10-14T14:37:06.783Z,19.59
2017-10-14T14:38:15.640Z,19.54
2017-10-14T14:39:24.498Z,19.59
2017-10-14T14:40:33.354Z,19.56
2017-10-14T14:41:42.223Z,19.58
2017-10-14T14:42:51.129Z,19.5
2017-10-14T14:43:59.984Z,19.48
2017-10-14T14:45:08.838Z,19.48
2017-10-14T14:46:17.695Z,19.55
2017-10-14T14:47:26.769Z,19.41
2017-10-14T14:48:35.625Z,19.43
2017-10-14T14:49:44.485Z,19.43